createdAt,value
2019-03-31T00:01:22.931Z,64.70
2019-03-31T00:03:49.375Z,65.12
2019-03-31T00:06:15.997Z,65.35
2019-03-31T00:08:42.453Z,65.03
2019-03-31T00:11:09.242Z,65.04
2019-03-31T00:13:35.661Z,65.34
2019-03-31T00:16:02.744Z,65.76
2019-03-31T00:18:29.218Z,66.24
2019-03-31T00:20:55.560Z,66.40
2019-03-31T00:23:22.162Z,66.38
2019-03-31T00:25:48.526Z,66.02
2019-03-31T00:28:16.041Z,66.02
2019-03-31T00:30:42.902Z,66.32
2019-03-31T00:33:09.527Z,66.84
2019-03-31T00:35:36.283Z,67.28
2019-03-31T00:38:03.232Z,67.21
2019-03-31T00:40:29.868Z,67.58
2019-03-31T00:42:56.205Z,67.58
2019-03-31T00:45:22.869Z,67.41
2019-03-31T00:47:49.643Z,67.35
2019-03-31T00:50:16.607Z,67.64
2019-03-31T00:52:42.956Z,67.66
2019-03-31T00:55:09.579Z,67.51
2019-03-31T00:57:35.961Z,67.30
2019-03-31T01:00:06.979Z,67.15
2019-03-31T01:02:35.532Z,67.19
2019-03-31T01:05:04.670Z,67.05
2019-03-31T01:07:31.579Z,67.60
2019-03-31T01:09:58.057Z,67.82
2019-03-31T01:12:25.391Z,67.80
2019-03-31T01:14:51.946Z,67.84
2019-03-31T01:17:19.664Z,68.07
2019-03-31T01:19:46.224Z,68.31
2019-03-31T01:22:12.722Z,68.22
2019-03-31T01:24:39.192Z,67.80
2019-03-31T01:27:08.700Z,67.57
2019-03-31T01:29:35.267Z,67.62
2019-03-31T01:32:01.793Z,67.57
2019-03-31T01:34:28.101Z,67.29
2019-03-31T01:36:54.850Z,67.30
2019-03-31T01:39:22.679Z,67.17
2019-03-31T01:41:49.635Z,66.50
2019-03-31T01:44:17.086Z,67.26
2019-03-31T01:46:43.417Z,67.47
2019-03-31T01:49:09.775Z,66.78
2019-03-31T01:51:36.079Z,67.23
2019-03-31T01:54:02.995Z,67.51
2019-03-31T01:56:29.663Z,67.33
2019-03-31T01:58:56.643Z,67.65
2019-03-31T02:01:23.499Z,67.71
2019-03-31T02:03:50.113Z,68.08
2019-03-31T02:06:16.457Z,67.78
2019-03-31T02:08:43.061Z,67.87
2019-03-31T02:11:09.447Z,68.22
2019-03-31T02:13:36.034Z,68.32
2019-03-31T02:16:02.386Z,68.14
2019-03-31T02:18:28.714Z,67.99
2019-03-31T02:20:55.064Z,67.87
2019-03-31T02:23:21.788Z,67.48
2019-03-31T02:25:49.549Z,67.30
2019-03-31T02:28:15.975Z,67.71
2019-03-31T02:30:42.289Z,67.74
2019-03-31T02:33:09.063Z,67.52
2019-03-31T02:35:35.382Z,66.83
2019-03-31T02:38:01.746Z,66.77
2019-03-31T02:40:28.112Z,67.10
2019-03-31T02:42:54.563Z,67.57
2019-03-31T02:45:21.326Z,67.92
2019-03-31T02:47:47.698Z,67.72
2019-03-31T02:50:39.998Z,67.62
2019-03-31T02:53:06.364Z,67.39
2019-03-31T02:55:33.027Z,67.59
2019-03-31T02:57:59.670Z,67.33
2019-03-31T03:00:26.270Z,67.24
2019-03-31T03:02:53.804Z,66.97
2019-03-31T03:05:22.285Z,66.25
2019-03-31T03:07:49.901Z,66.31
2019-03-31T03:10:17.513Z,66.46
2019-03-31T03:12:44.095Z,66.27
2019-03-31T03:15:14.263Z,66.25
2019-03-31T03:17:40.991Z,66.11
2019-03-31T03:20:07.760Z,66.02
2019-03-31T03:22:34.111Z,65.85
2019-03-31T03:25:00.531Z,64.81
2019-03-31T03:27:26.921Z,64.63
2019-03-31T03:29:53.273Z,65.43
2019-03-31T03:32:19.677Z,65.05
2019-03-31T03:34:46.032Z,65.25
2019-03-31T03:37:12.411Z,65.06
2019-03-31T03:39:39.122Z,64.99
2019-03-31T03:42:05.838Z,64.97
2019-03-31T03:44:32.284Z,64.94
2019-03-31T03:46:58.618Z,64.71
2019-03-31T03:49:24.955Z,64.48
2019-03-31T03:51:51.312Z,64.77
2019-03-31T03:54:17.977Z,65.03
2019-03-31T03:56:45.382Z,64.77
2019-03-31T03:59:12.227Z,63.90
2019-03-31T04:01:38.851Z,64.43
2019-03-31T04:04:05.196Z,64.48
2019-03-31T04:06:32.147Z,64.57
2019-03-31T04:08:58.453Z,64.80
2019-03-31T04:11:25.797Z,64.69
2019-03-31T04:13:52.555Z,64.72
2019-03-31T04:16:18.968Z,64.98
2019-03-31T04:18:45.337Z,64.82
2019-03-31T04:21:11.704Z,64.77
2019-03-31T04:23:38.066Z,65.03
2019-03-31T04:26:04.441Z,64.46
2019-03-31T04:28:30.805Z,64.59
2019-03-31T04:30:57.273Z,65.36
2019-03-31T04:33:23.628Z,65.30
2019-03-31T04:35:49.990Z,65.23
2019-03-31T04:38:16.326Z,65.80
2019-03-31T04:40:43.530Z,65.47
2019-03-31T04:43:11.209Z,66.03
2019-03-31T04:45:37.578Z,66.89
2019-03-31T04:48:03.967Z,67.43
2019-03-31T04:50:30.289Z,66.94
2019-03-31T04:52:56.636Z,67.75
2019-03-31T04:55:22.938Z,68.49
2019-03-31T04:57:49.338Z,69.07
2019-03-31T05:00:16.082Z,68.63
2019-03-31T05:02:42.416Z,68.71
2019-03-31T05:05:08.786Z,69.27
2019-03-31T05:07:35.097Z,69.03
2019-03-31T05:10:04.277Z,68.47
2019-03-31T05:12:30.958Z,69.08
2019-03-31T05:14:57.385Z,69.06
2019-03-31T05:17:24.034Z,69.06
2019-03-31T05:19:50.387Z,68.59
2019-03-31T05:22:16.719Z,68.11
2019-03-31T05:24:43.052Z,68.42
2019-03-31T05:27:09.488Z,68.19
2019-03-31T05:29:35.810Z,68.43
2019-03-31T05:32:02.660Z,68.40
2019-03-31T05:34:29.362Z,68.11
2019-03-31T05:36:55.677Z,68.43
2019-03-31T05:39:22.349Z,68.21
2019-03-31T05:41:48.983Z,68.09
2019-03-31T05:44:15.330Z,67.65
2019-03-31T05:46:41.632Z,67.30
2019-03-31T05:49:08.399Z,67.25
2019-03-31T05:51:35.123Z,67.00
2019-03-31T05:54:01.867Z,66.89
2019-03-31T05:56:28.506Z,66.82
2019-03-31T05:58:55.143Z,66.12
2019-03-31T06:01:21.717Z,65.60
2019-03-31T06:03:48.033Z,64.96
2019-03-31T06:06:14.382Z,64.29
2019-03-31T06:08:41.084Z,62.88
2019-03-31T06:11:07.790Z,62.90
2019-03-31T06:13:34.186Z,62.81
2019-03-31T06:16:00.812Z,62.45
2019-03-31T06:18:27.150Z,61.91
2019-03-31T06:20:53.879Z,61.12
2019-03-31T06:23:20.196Z,60.98
2019-03-31T06:25:46.678Z,61.00
2019-03-31T06:28:13.375Z,61.10
2019-03-31T06:30:40.172Z,60.62
2019-03-31T06:33:06.538Z,59.75
2019-03-31T06:35:32.843Z,59.36
2019-03-31T06:38:00.951Z,58.67
2019-03-31T06:40:27.263Z,57.73
2019-03-31T06:42:53.656Z,56.66
2019-03-31T06:45:19.977Z,55.64
2019-03-31T06:47:46.551Z,54.80
2019-03-31T06:50:13.331Z,54.44
2019-03-31T06:52:39.789Z,52.86
2019-03-31T06:55:07.265Z,53.03
2019-03-31T06:57:33.595Z,51.97
2019-03-31T06:59:59.974Z,51.52
2019-03-31T07:02:27.558Z,50.73
2019-03-31T07:05:00.903Z,50.45
2019-03-31T07:07:23.813Z,50.11
2019-03-31T07:09:50.498Z,49.61
2019-03-31T07:12:17.157Z,49.89
2019-03-31T07:14:43.797Z,49.85
2019-03-31T07:17:10.120Z,49.10
2019-03-31T07:19:36.449Z,48.23
2019-03-31T07:22:02.827Z,48.18
2019-03-31T07:24:29.122Z,47.77
2019-03-31T07:26:55.485Z,47.06
2019-03-31T07:29:21.796Z,47.42
2019-03-31T07:31:48.430Z,47.13
2019-03-31T07:34:14.785Z,46.92
2019-03-31T07:36:41.230Z,46.75
2019-03-31T07:39:07.946Z,47.19
2019-03-31T07:41:34.734Z,46.65
2019-03-31T07:44:02.196Z,46.54
2019-03-31T07:46:31.406Z,46.58
2019-03-31T07:48:58.009Z,46.30
2019-03-31T07:51:24.359Z,45.90
2019-03-31T07:53:50.696Z,46.38
2019-03-31T07:56:18.440Z,45.47
2019-03-31T07:58:45.170Z,44.99
2019-03-31T08:01:11.450Z,44.81
2019-03-31T08:03:38.077Z,45.52
2019-03-31T08:06:04.872Z,47.23
2019-03-31T08:08:31.595Z,48.26
2019-03-31T08:10:57.924Z,46.93
2019-03-31T08:13:24.561Z,48.33
2019-03-31T08:15:51.198Z,48.57
2019-03-31T08:18:17.842Z,48.62
2019-03-31T08:20:44.188Z,47.39
2019-03-31T08:23:10.803Z,46.13
2019-03-31T08:25:37.168Z,46.79
2019-03-31T08:28:03.465Z,47.22
2019-03-31T08:30:29.817Z,47.42
2019-03-31T08:32:56.441Z,46.80
2019-03-31T08:35:23.078Z,45.79
2019-03-31T08:37:49.420Z,44.59
2019-03-31T08:40:17.222Z,43.86
2019-03-31T08:42:43.575Z,44.19
2019-03-31T08:45:12.209Z,43.49
2019-03-31T08:47:38.680Z,42.38
2019-03-31T08:50:06.549Z,41.04
2019-03-31T08:52:32.908Z,41.54
2019-03-31T08:54:59.561Z,41.71
2019-03-31T08:57:25.890Z,42.07
2019-03-31T08:59:52.276Z,41.34
2019-03-31T09:02:22.937Z,40.17
2019-03-31T09:04:49.315Z,41.22
2019-03-31T09:07:16.025Z,43.47
2019-03-31T09:09:42.377Z,42.59
2019-03-31T09:12:09.018Z,42.08
2019-03-31T09:14:35.836Z,41.20
2019-03-31T09:17:02.746Z,40.27
2019-03-31T09:19:29.435Z,39.98
2019-03-31T09:21:55.833Z,41.32
2019-03-31T09:24:22.155Z,40.54
2019-03-31T09:26:49.699Z,40.94
2019-03-31T09:29:16.046Z,41.10
2019-03-31T09:31:42.358Z,40.36
2019-03-31T09:34:08.802Z,39.21
2019-03-31T09:36:35.208Z,38.63
2019-03-31T09:39:01.812Z,42.28
2019-03-31T09:41:29.148Z,43.15
2019-03-31T09:43:55.824Z,42.99
2019-03-31T09:46:22.167Z,43.63
2019-03-31T09:48:48.912Z,43.71
2019-03-31T09:51:15.533Z,43.73
2019-03-31T09:53:41.965Z,43.77
2019-03-31T09:56:08.277Z,43.83
2019-03-31T09:58:34.679Z,43.87
2019-03-31T10:01:01.003Z,45.50
2019-03-31T10:03:27.378Z,45.92
2019-03-31T10:05:54.126Z,46.19
2019-03-31T10:08:22.268Z,44.85
2019-03-31T10:10:48.759Z,43.93
2019-03-31T10:13:15.196Z,43.54
2019-03-31T10:15:42.342Z,42.77
2019-03-31T10:18:08.968Z,43.92
2019-03-31T10:20:35.423Z,44.22
2019-03-31T10:23:01.730Z,44.55
2019-03-31T10:25:28.372Z,44.05
2019-03-31T10:27:54.736Z,44.56
2019-03-31T10:30:36.661Z,42.70
2019-03-31T10:33:04.805Z,44.24
2019-03-31T10:35:31.262Z,42.53
2019-03-31T10:37:57.705Z,42.94
2019-03-31T10:40:24.057Z,42.22
2019-03-31T10:42:50.417Z,42.10
2019-03-31T10:45:16.773Z,41.37
2019-03-31T10:47:43.470Z,41.57
2019-03-31T10:50:10.043Z,40.91
2019-03-31T10:52:36.395Z,39.61
2019-03-31T10:55:05.707Z,38.95
2019-03-31T10:57:32.374Z,38.33
2019-03-31T10:59:58.715Z,38.87
2019-03-31T11:02:25.042Z,38.44
2019-03-31T11:04:51.451Z,37.54
2019-03-31T11:07:18.099Z,37.54
2019-03-31T11:09:44.750Z,36.56
2019-03-31T11:12:11.086Z,35.68
2019-03-31T11:14:37.751Z,35.35
2019-03-31T11:17:04.433Z,34.47
2019-03-31T11:19:31.829Z,34.33
2019-03-31T11:22:02.696Z,33.75
2019-03-31T11:24:29.424Z,32.74
2019-03-31T11:26:56.121Z,32.53
2019-03-31T11:29:23.719Z,31.85
2019-03-31T11:31:50.476Z,31.97
2019-03-31T11:34:19.655Z,32.33
2019-03-31T11:36:46.346Z,33.32
2019-03-31T11:39:16.143Z,34.05
2019-03-31T11:41:41.269Z,34.71
2019-03-31T11:44:07.564Z,35.78
2019-03-31T11:46:33.953Z,37.75
2019-03-31T11:49:01.346Z,37.93
2019-03-31T11:51:27.698Z,40.80
2019-03-31T11:53:54.399Z,42.58
2019-03-31T11:56:20.729Z,42.34
2019-03-31T11:58:47.093Z,41.75
2019-03-31T12:01:13.456Z,41.44
2019-03-31T12:03:40.118Z,39.91
2019-03-31T12:06:06.419Z,40.31
2019-03-31T12:08:32.795Z,40.01
2019-03-31T12:10:59.112Z,38.07
2019-03-31T12:13:25.441Z,34.81
2019-03-31T12:15:52.091Z,32.62
2019-03-31T12:18:18.386Z,31.42
2019-03-31T12:20:44.783Z,34.73
2019-03-31T12:23:11.150Z,35.37
2019-03-31T12:25:37.471Z,33.72
2019-03-31T12:28:03.820Z,35.29
2019-03-31T12:30:30.136Z,36.88
2019-03-31T12:32:56.937Z,39.82
2019-03-31T12:35:23.296Z,40.99
2019-03-31T12:37:51.984Z,44.01
2019-03-31T12:40:31.821Z,43.34
2019-03-31T12:42:58.581Z,43.57
2019-03-31T12:45:25.277Z,43.71
2019-03-31T12:47:51.685Z,43.98
2019-03-31T12:50:18.089Z,44.38
2019-03-31T12:52:46.977Z,44.74
2019-03-31T12:55:13.740Z,44.83
2019-03-31T12:57:40.071Z,45.11
2019-03-31T13:00:07.196Z,45.32
2019-03-31T13:02:33.976Z,45.99
2019-03-31T13:05:01.650Z,43.12
2019-03-31T13:07:28.291Z,41.28
2019-03-31T13:09:54.602Z,38.37
2019-03-31T13:12:20.944Z,38.26
2019-03-31T13:14:47.276Z,36.10
2019-03-31T13:17:13.936Z,35.12
2019-03-31T13:19:40.357Z,36.38
2019-03-31T13:22:08.015Z,38.97
2019-03-31T13:24:34.354Z,40.30
2019-03-31T13:27:00.688Z,41.21
2019-03-31T13:29:27.320Z,43.98
2019-03-31T13:31:53.944Z,45.71
2019-03-31T13:34:20.705Z,47.86
2019-03-31T13:36:47.017Z,47.74
2019-03-31T13:39:13.379Z,46.71
2019-03-31T13:41:39.688Z,47.35
2019-03-31T13:44:06.433Z,49.37
2019-03-31T13:46:33.065Z,49.86
2019-03-31T13:49:00.000Z,50.27
2019-03-31T13:51:26.733Z,51.10
2019-03-31T13:53:53.203Z,51.12
2019-03-31T13:56:20.224Z,50.01
2019-03-31T13:58:52.520Z,50.85
2019-03-31T14:01:15.347Z,51.77
2019-03-31T14:03:41.701Z,51.22
2019-03-31T14:06:08.110Z,49.80
2019-03-31T14:08:34.465Z,51.50
2019-03-31T14:11:01.093Z,49.05
2019-03-31T14:13:27.943Z,48.43
2019-03-31T14:15:54.366Z,48.10
2019-03-31T14:18:20.770Z,47.48
2019-03-31T14:20:47.438Z,48.25
2019-03-31T14:23:14.190Z,48.89
2019-03-31T14:25:40.839Z,49.60
2019-03-31T14:28:07.655Z,49.00
2019-03-31T14:30:34.107Z,47.44
2019-03-31T14:33:00.834Z,48.08
2019-03-31T14:35:27.549Z,47.77
2019-03-31T14:37:54.844Z,47.21
2019-03-31T14:40:21.578Z,47.90
2019-03-31T14:42:47.930Z,47.65
2019-03-31T14:45:30.274Z,48.43
2019-03-31T14:48:00.026Z,48.47
2019-03-31T14:50:35.740Z,49.47
2019-03-31T14:53:03.600Z,50.02
2019-03-31T14:55:29.946Z,50.07
2019-03-31T14:57:56.257Z,49.22
2019-03-31T15:00:22.597Z,49.23
2019-03-31T15:02:48.942Z,49.73
2019-03-31T15:05:15.608Z,49.33
2019-03-31T15:07:41.984Z,49.37
2019-03-31T15:10:08.442Z,50.36
2019-03-31T15:12:34.766Z,52.49
2019-03-31T15:15:01.405Z,51.96
2019-03-31T15:17:28.109Z,52.30
2019-03-31T15:19:54.604Z,51.90
2019-03-31T15:22:21.079Z,51.03
2019-03-31T15:24:47.790Z,51.24
2019-03-31T15:27:14.587Z,51.94
2019-03-31T15:29:40.999Z,51.25
2019-03-31T15:32:07.397Z,51.43
2019-03-31T15:34:33.723Z,51.24
2019-03-31T15:37:00.081Z,51.15
2019-03-31T15:39:26.581Z,51.57
2019-03-31T15:41:52.982Z,51.63
2019-03-31T15:47:17.529Z,53.91
2019-03-31T15:49:43.863Z,53.87
2019-03-31T15:52:10.229Z,53.20
2019-03-31T15:54:36.697Z,52.75
2019-03-31T15:57:05.781Z,51.87
2019-03-31T15:59:32.674Z,52.55
2019-03-31T16:01:59.067Z,51.61
2019-03-31T16:04:25.362Z,49.74
2019-03-31T16:06:52.010Z,49.39
2019-03-31T16:09:23.615Z,49.16
2019-03-31T16:11:53.629Z,49.37
2019-03-31T16:14:20.035Z,49.85
2019-03-31T16:16:52.075Z,49.74
2019-03-31T16:19:31.357Z,48.99
2019-03-31T16:21:59.526Z,48.25
2019-03-31T16:24:46.182Z,48.73
2019-03-31T16:27:18.147Z,49.08
2019-03-31T16:29:45.277Z,49.41
2019-03-31T16:32:11.676Z,48.98
2019-03-31T16:34:38.649Z,48.87
2019-03-31T16:37:08.261Z,48.55
2019-03-31T16:39:37.903Z,48.63
2019-03-31T16:42:03.327Z,47.98
2019-03-31T16:44:29.677Z,47.79
2019-03-31T16:46:56.378Z,47.93
2019-03-31T16:49:23.115Z,48.19
2019-03-31T16:51:49.901Z,48.67
2019-03-31T16:54:16.598Z,49.48
2019-03-31T16:56:45.975Z,49.27
2019-03-31T16:59:12.726Z,49.05
2019-03-31T17:01:39.638Z,49.25
2019-03-31T17:04:06.396Z,48.91
2019-03-31T17:06:32.815Z,48.82
2019-03-31T17:08:59.523Z,49.08
2019-03-31T17:11:26.187Z,49.30
2019-03-31T17:13:52.897Z,48.97
2019-03-31T17:16:19.294Z,48.65
2019-03-31T17:18:46.395Z,48.65
2019-03-31T17:21:13.988Z,48.55
2019-03-31T17:23:40.449Z,48.80
2019-03-31T17:26:07.071Z,48.62
2019-03-31T17:28:43.451Z,48.81
2019-03-31T17:31:05.889Z,49.43
2019-03-31T17:33:32.750Z,49.22
2019-03-31T17:36:00.112Z,48.92
2019-03-31T17:38:26.751Z,49.45
2019-03-31T17:40:54.187Z,50.46
2019-03-31T17:43:20.858Z,50.61
2019-03-31T17:45:47.896Z,50.11
2019-03-31T17:48:14.970Z,50.05
2019-03-31T17:50:43.478Z,49.71
2019-03-31T17:53:11.252Z,49.26
2019-03-31T17:55:38.019Z,49.04
2019-03-31T17:58:04.662Z,48.92
2019-03-31T18:00:32.096Z,48.74
2019-03-31T18:02:58.858Z,48.76
2019-03-31T18:05:25.201Z,49.07
2019-03-31T18:07:51.608Z,48.54
2019-03-31T18:10:27.361Z,48.88
2019-03-31T18:12:54.253Z,49.34
2019-03-31T18:15:20.753Z,49.41
2019-03-31T18:17:47.294Z,50.10
2019-03-31T18:20:13.684Z,50.12
2019-03-31T18:22:40.516Z,50.29
2019-03-31T18:25:07.832Z,50.98
2019-03-31T18:27:34.284Z,50.86
2019-03-31T18:30:00.663Z,51.65
2019-03-31T18:32:27.143Z,52.34
2019-03-31T18:34:53.948Z,52.72
2019-03-31T18:37:22.390Z,52.93
2019-03-31T18:39:49.109Z,52.78
2019-03-31T18:42:16.551Z,52.81
2019-03-31T18:44:43.929Z,53.43
2019-03-31T18:47:10.315Z,53.51
2019-03-31T18:49:37.422Z,54.11
2019-03-31T18:52:03.907Z,54.04
2019-03-31T18:54:33.462Z,54.46
2019-03-31T18:57:08.227Z,54.68
2019-03-31T18:59:40.052Z,55.47
2019-03-31T19:02:12.497Z,55.41
2019-03-31T19:05:00.638Z,55.96
2019-03-31T19:07:44.492Z,55.87
2019-03-31T19:10:33.890Z,56.58
2019-03-31T19:13:17.994Z,56.71
2019-03-31T19:15:51.134Z,56.77
2019-03-31T19:18:22.763Z,57.03
2019-03-31T19:21:11.147Z,57.34
2019-03-31T19:23:38.457Z,57.37
2019-03-31T19:26:23.245Z,57.52
2019-03-31T19:28:49.931Z,57.59
2019-03-31T19:31:21.624Z,57.75
2019-03-31T19:34:00.291Z,57.81
2019-03-31T19:36:35.931Z,57.89
2019-03-31T19:39:14.801Z,57.74
2019-03-31T19:42:00.243Z,58.03
2019-03-31T19:44:28.576Z,58.65
2019-03-31T19:46:57.928Z,58.66
2019-03-31T19:49:35.327Z,58.36
2019-03-31T19:52:21.909Z,58.44
2019-03-31T19:54:53.601Z,58.66
2019-03-31T19:57:25.160Z,58.96
2019-03-31T19:59:53.567Z,59.04
2019-03-31T20:02:29.105Z,59.30
2019-03-31T20:05:11.056Z,58.96
2019-03-31T20:07:45.242Z,59.02
2019-03-31T20:10:14.468Z,58.83
2019-03-31T20:12:49.112Z,59.40
2019-03-31T20:15:17.800Z,59.52
2019-03-31T20:17:49.184Z,59.58
2019-03-31T20:20:23.991Z,59.53
2019-03-31T20:22:56.123Z,59.18
2019-03-31T20:25:42.722Z,58.91
2019-03-31T20:28:14.936Z,59.04
2019-03-31T20:31:01.810Z,59.17
2019-03-31T20:33:38.993Z,59.75
2019-03-31T20:36:10.225Z,59.87
2019-03-31T20:38:56.925Z,60.13
2019-03-31T20:41:44.243Z,60.39
2019-03-31T20:44:10.955Z,60.27
2019-03-31T20:46:37.432Z,60.28
2019-03-31T20:49:03.765Z,60.15
2019-03-31T20:51:30.547Z,60.00
2019-03-31T20:53:56.889Z,59.72
2019-03-31T20:56:23.287Z,59.65
2019-03-31T20:58:49.959Z,59.36
2019-03-31T21:01:16.601Z,58.95
2019-03-31T21:03:42.941Z,58.90
2019-03-31T21:06:09.555Z,58.87
2019-03-31T21:08:37.756Z,58.42
2019-03-31T21:11:04.793Z,58.29
2019-03-31T21:13:31.436Z,57.92
2019-03-31T21:15:58.163Z,57.69
2019-03-31T21:18:24.556Z,57.55
2019-03-31T21:20:51.225Z,57.90
2019-03-31T21:23:17.596Z,57.51
2019-03-31T21:25:43.933Z,57.27
2019-03-31T21:28:10.568Z,57.40
2019-03-31T21:30:37.370Z,57.08
2019-03-31T21:33:04.011Z,57.08
2019-03-31T21:35:30.362Z,57.20
2019-03-31T21:37:56.832Z,57.53
2019-03-31T21:40:23.204Z,57.97
2019-03-31T21:42:49.675Z,57.78
2019-03-31T21:45:15.990Z,57.76
2019-03-31T21:47:42.403Z,57.66
2019-03-31T21:50:09.070Z,57.82
2019-03-31T21:52:35.396Z,58.34
2019-03-31T21:55:03.498Z,58.04
2019-03-31T21:57:30.199Z,58.36
2019-03-31T21:59:56.557Z,58.66
2019-03-31T22:02:22.896Z,59.00
2019-03-31T22:04:49.218Z,58.45
2019-03-31T22:07:15.568Z,58.12
2019-03-31T22:09:41.914Z,58.22
2019-03-31T22:12:08.258Z,58.77
2019-03-31T22:14:34.917Z,58.29
2019-03-31T22:17:01.567Z,58.61
2019-03-31T22:19:27.911Z,58.08
2019-03-31T22:21:54.348Z,57.81
2019-03-31T22:24:20.677Z,58.14
2019-03-31T22:26:46.989Z,58.76
2019-03-31T22:29:13.844Z,58.07
2019-03-31T22:31:40.178Z,58.31
2019-03-31T22:34:06.650Z,58.91
2019-03-31T22:36:33.016Z,59.65
2019-03-31T22:38:59.680Z,59.10
2019-03-31T22:41:26.035Z,59.69
2019-03-31T22:43:52.729Z,59.02
2019-03-31T22:46:19.067Z,58.98
2019-03-31T22:48:45.426Z,58.71
2019-03-31T22:51:11.860Z,58.47
2019-03-31T22:53:38.181Z,58.54
2019-03-31T22:56:05.102Z,58.65
2019-03-31T22:58:31.434Z,57.53
2019-03-31T23:00:58.197Z,57.42
2019-03-31T23:03:24.818Z,57.70
2019-03-31T23:05:51.457Z,57.87
2019-03-31T23:08:17.925Z,57.79
2019-03-31T23:10:44.629Z,56.97
2019-03-31T23:13:11.782Z,57.14
2019-03-31T23:15:38.423Z,56.64
2019-03-31T23:18:04.777Z,56.42
2019-03-31T23:20:32.234Z,55.99
2019-03-31T23:22:58.967Z,56.39
2019-03-31T23:25:25.388Z,56.88
2019-03-31T23:27:51.836Z,56.84
2019-03-31T23:30:18.253Z,56.16
2019-03-31T23:32:44.582Z,55.98
2019-03-31T23:35:12.014Z,56.29
2019-03-31T23:37:40.650Z,56.63
2019-03-31T23:40:07.505Z,56.55
2019-03-31T23:42:33.850Z,55.89
2019-03-31T23:45:00.551Z,55.95
2019-03-31T23:47:27.055Z,54.71
2019-03-31T23:49:53.441Z,55.22
2019-03-31T23:52:20.166Z,55.60
2019-03-31T23:54:46.518Z,55.16
2019-03-31T23:57:12.943Z,55.30
2019-03-31T23:59:39.549Z,55.49
